Time;durP1;ratioP1;P1;durP2;ratioP2;P2;SDS_P1;SDS_P2;PMS_P1;PMS_P2;Temp;Humidity;BMP_temperature;BMP_pressure;BME280_temperature;BME280_humidity;BME280_pressure;Samples;Min_cycle;Max_cycle;Signal;HPM_P1;HPM_P2
2021/12/21 00:01:58;;;;;;;10.55;5.75;;;5.90;96.40;;;;;;4974981;28;20050;-67
2021/12/21 00:04:23;;;;;;;9.15;5.70;;;6.00;96.50;;;;;;4974028;28;20433;-66
2021/12/21 00:06:49;;;;;;;8.32;5.38;;;6.00;96.50;;;;;;4974530;28;20110;-67
2021/12/21 00:09:15;;;;;;;9.18;5.45;;;6.00;96.50;;;;;;4973470;28;20031;-67
2021/12/21 00:11:40;;;;;;;10.18;5.72;;;6.00;96.50;;;;;;4973034;28;20026;-67
2021/12/21 00:14:19;;;;;;;13.10;5.15;;;5.90;96.50;;;;;;4974602;28;20023;-67
2021/12/21 00:17:42;;;;;;;9.45;4.80;;;6.00;96.50;;;;;;4956242;28;20439;-66
2021/12/21 00:20:26;;;;;;;10.27;4.35;;;6.00;96.50;;;;;;4958071;28;20122;-67
2021/12/21 00:25:06;;;;;;;10.57;4.43;;;6.00;96.40;;;;;;4973061;28;20147;-66
2021/12/21 00:27:31;;;;;;;10.85;4.63;;;6.00;96.40;;;;;;4972918;28;20079;-67
2021/12/21 00:29:57;;;;;;;8.90;4.47;;;6.00;96.40;;;;;;4973292;28;20054;-66
2021/12/21 00:32:23;;;;;;;9.93;4.53;;;6.00;96.40;;;;;;4974903;28;20110;-67
2021/12/21 00:34:49;;;;;;;7.65;4.13;;;6.00;96.40;;;;;;4971368;28;20030;-67
2021/12/21 00:37:14;;;;;;;8.32;4.13;;;6.00;96.40;;;;;;4972654;28;20135;-67
2021/12/21 00:39:40;;;;;;;8.57;4.60;;;6.00;96.40;;;;;;4973931;28;20046;-67
2021/12/21 00:42:06;;;;;;;5.90;3.78;;;6.00;96.40;;;;;;4972663;28;20027;-67
2021/12/21 00:44:31;;;;;;;8.60;3.85;;;6.00;96.40;;;;;;4970489;28;20031;-67
2021/12/21 00:46:57;;;;;;;7.82;4.25;;;6.00;96.40;;;;;;4967460;28;20035;-67
2021/12/21 00:49:23;;;;;;;6.15;4.00;;;6.00;96.30;;;;;;4973177;28;20468;-67
2021/12/21 00:51:49;;;;;;;7.28;3.92;;;6.00;96.40;;;;;;4974877;28;20114;-67
2021/12/21 00:54:16;;;;;;;6.35;4.00;;;6.00;96.30;;;;;;4973303;28;20113;-68
2021/12/21 00:56:42;;;;;;;6.70;4.15;;;6.00;96.30;;;;;;4972705;28;20516;-68
2021/12/21 00:59:08;;;;;;;7.40;3.60;;;6.00;96.30;;;;;;4971630;28;20046;-67
2021/12/21 01:01:35;;;;;;;6.13;3.60;;;6.00;96.50;;;;;;4972792;28;20066;-67
2021/12/21 01:04:04;;;;;;;7.93;3.42;;;6.00;96.30;;;;;;4973599;28;20604;-67
2021/12/21 01:09:36;;;;;;;7.82;3.15;;;5.90;96.20;;;;;;4969105;28;20042;-67
2021/12/21 01:12:04;;;;;;;4.20;2.72;;;5.90;96.20;;;;;;4954772;28;20550;-67
2021/12/21 01:17:10;;;;;;;6.78;3.92;;;5.90;96.20;;;;;;4973333;28;20066;-67
2021/12/21 01:19:43;;;;;;;10.55;3.13;;;5.90;96.20;;;;;;4973226;28;20054;-68
2021/12/21 01:22:20;;;;;;;5.03;3.10;;;5.80;96.30;;;;;;4972603;28;20486;-65
2021/12/21 01:25:10;;;;;;;5.97;3.22;;;5.80;96.30;;;;;;4973401;28;20286;-67
2021/12/21 01:27:52;;;;;;;5.80;3.65;;;5.80;96.50;;;;;;4971399;28;20027;-67
2021/12/21 01:30:48;;;;;;;6.38;2.95;;;5.80;96.20;;;;;;4969159;28;20035;-66
2021/12/21 01:36:00;;;;;;;6.00;3.17;;;5.80;96.30;;;;;;4969287;28;20510;-66
2021/12/21 01:38:34;;;;;;;5.88;2.78;;;5.70;96.20;;;;;;4973449;28;20078;-66
2021/12/21 01:41:24;;;;;;;7.88;2.92;;;5.70;96.30;;;;;;4972654;28;20114;-66
2021/12/21 01:44:04;;;;;;;7.15;2.95;;;5.70;96.30;;;;;;4973931;28;20093;-66
2021/12/21 01:51:58;;;;;;;6.57;3.30;;;5.70;96.40;;;;;;4973777;28;20285;-66
2021/12/21 01:54:26;;;;;;;6.53;3.55;;;5.60;96.30;;;;;;4969745;28;20047;-66
2021/12/21 01:56:52;;;;;;;6.72;3.33;;;5.60;96.60;;;;;;4972321;28;20145;-67
2021/12/21 01:59:18;;;;;;;7.90;3.08;;;5.60;96.40;;;;;;4969998;28;22344;-66
2021/12/21 02:01:44;;;;;;;5.82;3.40;;;5.60;96.40;;;;;;4970411;28;20522;-66
2021/12/21 02:04:11;;;;;;;7.43;3.47;;;5.60;96.40;;;;;;4972465;28;20493;-66
2021/12/21 02:06:37;;;;;;;11.25;3.60;;;5.60;96.40;;;;;;4960742;28;20026;-66
2021/12/21 02:09:02;;;;;;;5.65;3.25;;;5.60;96.50;;;;;;4972740;28;20023;-66
2021/12/21 02:11:28;;;;;;;7.45;3.75;;;5.60;96.50;;;;;;4970589;28;20575;-66
2021/12/21 02:13:53;;;;;;;7.53;4.32;;;5.60;96.60;;;;;;4972717;28;20474;-66
2021/12/21 02:16:26;;;;;;;7.38;3.65;;;5.60;96.50;;;;;;4970638;28;20030;-66
2021/12/21 02:19:00;;;;;;;10.57;3.95;;;5.70;96.60;;;;;;4972681;28;20038;-66
2021/12/21 02:21:33;;;;;;;6.30;3.40;;;5.70;96.60;;;;;;4971448;28;20039;-66
2021/12/21 02:24:03;;;;;;;6.88;4.03;;;5.70;96.60;;;;;;4971573;28;20125;-66
2021/12/21 02:26:48;;;;;;;6.93;3.67;;;5.70;96.60;;;;;;4972334;28;20498;-66
2021/12/21 02:29:28;;;;;;;9.80;4.20;;;5.70;96.60;;;;;;4955803;28;20045;-66
2021/12/21 02:31:55;;;;;;;7.13;4.03;;;5.70;96.60;;;;;;4960296;28;20057;-66
2021/12/21 02:34:23;;;;;;;9.65;4.65;;;5.80;96.60;;;;;;4967174;28;20045;-66
2021/12/21 02:36:52;;;;;;;12.77;4.65;;;5.80;96.60;;;;;;4972473;28;20105;-66
2021/12/21 02:39:18;;;;;;;8.50;4.80;;;5.80;96.50;;;;;;4971014;28;20074;-66
2021/12/21 02:41:44;;;;;;;7.90;4.95;;;5.80;96.60;;;;;;4962953;28;20504;-66
2021/12/21 02:44:10;;;;;;;11.85;4.30;;;5.80;96.60;;;;;;4971916;28;20506;-65
2021/12/21 02:46:39;;;;;;;8.50;4.47;;;5.80;96.60;;;;;;4972470;28;20105;-66
2021/12/21 02:49:06;;;;;;;11.75;5.40;;;5.80;96.50;;;;;;4970152;28;20107;-66
2021/12/21 02:51:31;;;;;;;7.70;5.10;;;5.70;96.60;;;;;;4971019;28;20265;-66
2021/12/21 02:53:57;;;;;;;8.98;5.50;;;5.70;96.60;;;;;;4972874;28;20653;-66
2021/12/21 02:56:23;;;;;;;11.10;5.53;;;5.60;96.50;;;;;;4960715;28;20025;-66
2021/12/21 02:58:49;;;;;;;10.48;5.65;;;5.60;96.50;;;;;;4971580;28;20082;-66
2021/12/21 03:01:15;;;;;;;7.97;4.65;;;5.60;96.60;;;;;;4969558;28;20042;-66
2021/12/21 03:03:41;;;;;;;8.10;4.95;;;5.60;96.60;;;;;;4969818;28;20042;-66
2021/12/21 03:06:12;;;;;;;9.98;5.03;;;5.60;96.60;;;;;;4969354;28;20031;-66
2021/12/21 03:08:42;;;;;;;9.15;5.93;;;5.70;96.60;;;;;;4971116;28;20051;-67
2021/12/21 03:11:16;;;;;;;9.07;5.57;;;5.60;96.60;;;;;;4972234;28;20031;-66
2021/12/21 03:14:03;;;;;;;9.98;5.57;;;5.70;96.60;;;;;;4971822;28;20031;-66
2021/12/21 03:16:31;;;;;;;9.43;5.22;;;5.70;96.60;;;;;;4972069;28;20067;-66
2021/12/21 03:18:57;;;;;;;11.15;5.40;;;5.70;96.60;;;;;;4971300;28;20085;-67
2021/12/21 03:21:23;;;;;;;8.55;5.00;;;5.70;96.50;;;;;;4969069;28;20093;-66
2021/12/21 03:23:48;;;;;;;10.23;6.03;;;5.70;96.50;;;;;;4964336;28;20069;-66
2021/12/21 03:26:14;;;;;;;8.80;5.15;;;5.70;96.60;;;;;;4959154;28;20030;-67
2021/12/21 03:28:39;;;;;;;8.60;5.38;;;5.70;96.50;;;;;;4971536;28;20030;-67
2021/12/21 03:31:06;;;;;;;8.30;5.72;;;5.70;96.60;;;;;;4972052;28;20058;-67
2021/12/21 03:33:32;;;;;;;10.30;5.40;;;5.70;96.60;;;;;;4970949;28;20034;-66
2021/12/21 03:36:00;;;;;;;10.18;5.57;;;5.70;96.50;;;;;;4962641;28;20062;-67
2021/12/21 03:38:26;;;;;;;13.35;6.20;;;5.70;96.50;;;;;;4968577;28;20039;-67
2021/12/21 03:40:54;;;;;;;8.88;5.20;;;5.60;96.50;;;;;;4972131;28;20169;-67
2021/12/21 03:43:20;;;;;;;9.95;5.32;;;5.70;96.50;;;;;;4986293;28;20046;-67
2021/12/21 03:45:55;;;;;;;9.07;5.25;;;5.70;96.50;;;;;;4971390;28;20034;-67
2021/12/21 03:48:21;;;;;;;9.13;5.35;;;5.60;96.60;;;;;;4971583;28;20038;-67
2021/12/21 03:50:46;;;;;;;10.43;5.32;;;5.60;96.60;;;;;;4972319;28;20027;-67
2021/12/21 03:53:12;;;;;;;9.43;6.13;;;5.60;96.60;;;;;;4968948;28;20035;-67
2021/12/21 03:55:37;;;;;;;10.35;5.88;;;5.60;96.60;;;;;;4969458;28;20027;-66
2021/12/21 03:58:03;;;;;;;10.82;5.70;;;5.60;96.70;;;;;;4971706;28;20035;-66
2021/12/21 04:00:28;;;;;;;9.57;5.20;;;5.60;96.70;;;;;;4971888;28;20051;-66
2021/12/21 04:02:55;;;;;;;7.60;5.07;;;5.60;96.80;;;;;;4975772;28;20023;-66
2021/12/21 04:05:20;;;;;;;12.07;5.57;;;5.60;96.80;;;;;;4961207;28;20114;-66
2021/12/21 04:07:46;;;;;;;8.95;5.72;;;5.60;96.80;;;;;;4956007;28;20054;-66
2021/12/21 04:10:11;;;;;;;9.38;5.85;;;5.60;96.70;;;;;;4967377;28;20051;-66
2021/12/21 04:12:38;;;;;;;15.68;6.70;;;5.60;96.70;;;;;;4972549;28;20081;-67
2021/12/21 04:15:06;;;;;;;9.43;5.75;;;5.50;96.70;;;;;;4969389;28;20363;-66
2021/12/21 04:17:32;;;;;;;10.77;5.93;;;5.60;96.70;;;;;;4975250;28;20117;-66
2021/12/21 04:19:58;;;;;;;11.68;5.78;;;5.60;96.70;;;;;;4974440;28;20069;-66
2021/12/21 04:22:24;;;;;;;10.05;6.28;;;5.60;96.80;;;;;;4974329;28;20078;-67
2021/12/21 04:24:49;;;;;;;12.18;7.03;;;5.50;96.70;;;;;;4972924;28;20058;-66
2021/12/21 04:27:16;;;;;;;12.80;7.45;;;5.60;96.70;;;;;;4974606;28;20050;-67
2021/12/21 04:29:42;;;;;;;11.15;7.20;;;5.60;96.80;;;;;;4973900;28;20038;-67
2021/12/21 04:32:07;;;;;;;15.30;7.57;;;5.50;96.70;;;;;;4974440;28;20086;-66
2021/12/21 04:34:34;;;;;;;14.60;6.82;;;5.50;96.80;;;;;;4973798;28;20061;-66
2021/12/21 04:37:00;;;;;;;14.32;8.20;;;5.50;96.80;;;;;;4975154;28;20501;-66
2021/12/21 04:39:42;;;;;;;13.75;7.85;;;5.40;96.80;;;;;;4973809;28;20027;-67
2021/12/21 04:42:08;;;;;;;13.50;7.88;;;5.40;96.90;;;;;;4973064;28;20034;-66
2021/12/21 04:44:33;;;;;;;12.40;7.13;;;5.40;96.90;;;;;;4976935;28;20431;-66
2021/12/21 04:47:00;;;;;;;14.50;8.27;;;5.40;96.90;;;;;;4975537;28;20678;-66
2021/12/21 04:49:25;;;;;;;14.43;8.00;;;5.40;96.90;;;;;;4974945;28;20094;-66
2021/12/21 04:51:51;;;;;;;18.17;8.93;;;5.40;96.90;;;;;;4974556;28;20027;-66
2021/12/21 04:54:17;;;;;;;15.85;9.13;;;5.30;96.90;;;;;;4969116;28;20031;-66
2021/12/21 04:56:42;;;;;;;16.70;8.95;;;5.40;97.20;;;;;;4972448;28;20513;-66
2021/12/21 04:59:08;;;;;;;15.55;8.70;;;5.30;97.00;;;;;;4972378;28;20035;-66
2021/12/21 05:01:33;;;;;;;16.70;9.23;;;5.30;97.10;;;;;;4970058;28;20050;-66
2021/12/21 05:03:59;;;;;;;15.13;7.78;;;5.30;97.10;;;;;;4973735;28;20046;-66
2021/12/21 05:06:25;;;;;;;14.40;7.90;;;5.30;97.00;;;;;;4973783;28;20027;-67
2021/12/21 05:09:07;;;;;;;15.23;8.27;;;5.30;97.00;;;;;;4973153;28;20113;-67
2021/12/21 05:11:35;;;;;;;18.08;8.40;;;5.30;97.00;;;;;;4969466;28;20027;-66
2021/12/21 05:14:01;;;;;;;14.60;8.57;;;5.20;97.00;;;;;;4969634;28;20035;-66
2021/12/21 05:16:27;;;;;;;16.38;7.78;;;5.10;97.00;;;;;;4974243;28;20031;-66
2021/12/21 05:18:52;;;;;;;12.68;8.18;;;5.10;97.10;;;;;;4973324;28;20034;-65
2021/12/21 05:21:18;;;;;;;15.20;8.38;;;5.10;97.00;;;;;;4974436;28;20030;-66
2021/12/21 05:23:43;;;;;;;14.30;7.97;;;5.10;97.00;;;;;;4972675;28;20048;-65
2021/12/21 05:26:09;;;;;;;15.35;8.60;;;5.10;97.10;;;;;;4974392;28;20541;-66
2021/12/21 05:28:34;;;;;;;19.38;8.05;;;5.10;97.10;;;;;;4972043;28;20031;-66
2021/12/21 05:31:00;;;;;;;14.18;7.57;;;5.00;97.20;;;;;;4973381;28;20347;-66
2021/12/21 05:33:27;;;;;;;14.73;7.75;;;5.00;97.20;;;;;;4972549;28;20034;-66
2021/12/21 05:35:53;;;;;;;13.02;7.72;;;5.00;97.20;;;;;;4973835;28;20026;-66
2021/12/21 05:38:27;;;;;;;13.00;7.68;;;5.00;97.10;;;;;;4973206;28;20034;-66
2021/12/21 05:40:54;;;;;;;18.10;8.02;;;5.00;97.10;;;;;;4973222;28;20174;-66
2021/12/21 05:43:21;;;;;;;13.20;7.22;;;5.00;97.20;;;;;;4972956;28;20046;-67
2021/12/21 05:45:46;;;;;;;14.65;7.85;;;4.90;97.20;;;;;;4965325;28;20589;-68
2021/12/21 05:48:12;;;;;;;13.52;7.60;;;4.90;97.30;;;;;;4960294;28;20042;-66
2021/12/21 05:50:37;;;;;;;16.27;8.57;;;4.90;97.20;;;;;;4972054;28;20389;-66
2021/12/21 05:53:03;;;;;;;13.90;7.82;;;4.80;97.10;;;;;;4973895;28;20089;-67
2021/12/21 05:55:29;;;;;;;13.85;8.75;;;4.80;97.10;;;;;;4971557;28;20131;-66
2021/12/21 05:57:54;;;;;;;16.48;8.68;;;4.70;97.20;;;;;;4973516;28;20055;-66
2021/12/21 06:00:24;;;;;;;14.25;8.45;;;4.60;97.30;;;;;;4971770;28;20050;-66
2021/12/21 06:02:50;;;;;;;15.98;8.07;;;4.60;97.40;;;;;;4969486;28;20031;-66
2021/12/21 06:05:16;;;;;;;16.75;8.93;;;4.60;97.50;;;;;;4972470;28;20034;-66
2021/12/21 06:07:41;;;;;;;15.98;9.45;;;4.60;97.40;;;;;;4972584;28;20101;-66
2021/12/21 06:10:13;;;;;;;17.17;9.35;;;4.60;97.50;;;;;;4958162;28;20027;-66
2021/12/21 06:12:58;;;;;;;16.77;10.18;;;4.60;97.40;;;;;;4960342;28;20066;-66
2021/12/21 06:23:47;;;;;;;12.30;7.60;;;4.60;97.40;;;;;;4971276;28;20425;-67
2021/12/21 06:26:13;;;;;;;15.00;7.78;;;4.50;97.40;;;;;;4965754;28;20035;-66
2021/12/21 06:28:39;;;;;;;13.27;7.95;;;4.50;97.50;;;;;;4972344;28;20434;-66
2021/12/21 06:31:05;;;;;;;14.48;8.75;;;4.50;97.50;;;;;;4959224;28;20493;-66
2021/12/21 06:33:31;;;;;;;16.38;7.75;;;4.50;97.70;;;;;;4962684;28;20027;-66
2021/12/21 06:35:56;;;;;;;13.65;8.07;;;4.50;97.70;;;;;;4972549;28;20034;-66
2021/12/21 06:38:22;;;;;;;12.73;7.28;;;4.40;97.60;;;;;;4971949;28;20073;-66
2021/12/21 06:40:48;;;;;;;14.18;7.75;;;4.50;97.60;;;;;;4971843;28;20130;-66
2021/12/21 06:43:15;;;;;;;14.68;8.10;;;4.50;97.50;;;;;;4971999;28;20070;-66
2021/12/21 06:53:46;;;;;;;13.73;9.23;;;4.40;97.50;;;;;;4971109;28;20566;-66
2021/12/21 06:56:13;;;;;;;15.00;7.75;;;4.40;97.60;;;;;;4971098;28;20569;-66
2021/12/21 06:58:38;;;;;;;14.98;8.23;;;4.30;97.60;;;;;;4966817;28;20034;-66
2021/12/21 07:01:05;;;;;;;14.52;8.65;;;4.30;97.60;;;;;;4970852;28;20141;-66
2021/12/21 07:03:30;;;;;;;14.00;7.40;;;4.30;97.70;;;;;;4965897;28;20070;-66
2021/12/21 07:06:00;;;;;;;15.40;7.78;;;4.30;97.60;;;;;;4967600;28;20517;-67
2021/12/21 07:08:29;;;;;;;11.82;7.03;;;4.30;97.70;;;;;;4957865;28;20034;-66
2021/12/21 07:11:08;;;;;;;16.15;7.80;;;4.30;97.60;;;;;;4971522;28;20085;-64
2021/12/21 07:19:03;;;;;;;13.88;7.47;;;4.40;97.60;;;;;;4972740;28;20093;-66
2021/12/21 07:21:28;;;;;;;15.85;7.82;;;4.40;97.60;;;;;;4972170;28;20043;-66
2021/12/21 07:23:54;;;;;;;13.35;7.60;;;4.40;97.60;;;;;;4971634;28;20039;-67
2021/12/21 07:26:19;;;;;;;12.38;7.10;;;4.40;97.60;;;;;;4971459;28;20027;-67
2021/12/21 07:28:45;;;;;;;13.70;6.68;;;4.50;97.60;;;;;;4973320;28;20034;-67
2021/12/21 07:31:10;;;;;;;16.35;7.60;;;4.50;97.60;;;;;;4969421;28;20034;-67
2021/12/21 07:33:36;;;;;;;14.57;6.97;;;4.50;97.60;;;;;;4972518;28;20112;-67
2021/12/21 07:36:02;;;;;;;15.77;8.02;;;4.50;97.50;;;;;;4973739;28;20027;-67
2021/12/21 07:38:30;;;;;;;12.75;8.07;;;4.60;97.40;;;;;;4969707;28;20201;-67
2021/12/21 07:40:57;;;;;;;13.38;8.10;;;4.60;97.40;;;;;;4975077;28;20037;-67
2021/12/21 07:43:22;;;;;;;11.35;7.38;;;4.60;97.40;;;;;;4986041;28;20046;-67
2021/12/21 07:45:48;;;;;;;15.05;8.23;;;4.70;97.30;;;;;;4975864;28;20081;-67
2021/12/21 07:48:13;;;;;;;13.40;7.28;;;4.60;97.30;;;;;;4984551;28;20529;-67
2021/12/21 07:50:39;;;;;;;13.85;8.38;;;4.70;97.40;;;;;;4983732;28;20026;-67
2021/12/21 07:53:05;;;;;;;12.27;7.80;;;4.70;97.40;;;;;;4972297;28;20582;-67
2021/12/21 07:55:31;;;;;;;14.43;7.80;;;4.80;97.40;;;;;;4979976;28;20030;-64
2021/12/21 07:57:57;;;;;;;14.32;7.68;;;4.80;97.30;;;;;;4973727;28;20506;-66
2021/12/21 08:00:23;;;;;;;15.27;7.82;;;4.80;97.30;;;;;;4974077;28;20681;-64
2021/12/21 08:02:49;;;;;;;10.65;7.05;;;4.80;97.30;;;;;;4975255;28;20042;-65
2021/12/21 08:05:15;;;;;;;13.75;7.57;;;4.90;97.30;;;;;;4970630;28;20027;-65
2021/12/21 08:07:52;;;;;;;17.45;9.13;;;4.90;97.30;;;;;;4973875;28;20031;-65
2021/12/21 08:10:42;;;;;;;14.20;7.72;;;4.90;97.10;;;;;;4968329;28;20034;-64
2021/12/21 08:13:08;;;;;;;14.52;8.27;;;4.90;97.20;;;;;;4967458;28;20031;-64
2021/12/21 08:15:33;;;;;;;21.48;9.15;;;5.00;97.20;;;;;;4962566;28;20043;-65
2021/12/21 08:17:59;;;;;;;16.67;10.57;;;5.00;97.20;;;;;;4966584;28;20019;-65
2021/12/21 08:20:26;;;;;;;15.02;8.38;;;5.10;97.20;;;;;;4962843;28;20030;-65
2021/12/21 08:22:55;;;;;;;15.70;8.13;;;5.10;97.20;;;;;;4959022;28;20069;-65
2021/12/21 08:25:26;;;;;;;13.88;8.48;;;5.20;97.10;;;;;;4965856;28;20027;-65
2021/12/21 08:27:56;;;;;;;16.63;8.30;;;5.20;97.20;;;;;;4965144;28;20074;-65
2021/12/21 08:30:22;;;;;;;16.27;9.07;;;5.30;97.10;;;;;;4964976;28;20036;-65
2021/12/21 08:32:48;;;;;;;14.38;8.60;;;5.40;97.10;;;;;;4972554;28;20039;-65
2021/12/21 08:35:14;;;;;;;16.08;8.57;;;5.40;97.10;;;;;;4970918;28;20105;-65
2021/12/21 08:37:40;;;;;;;14.68;8.57;;;5.50;97.10;;;;;;4964460;28;20138;-66
2021/12/21 08:40:07;;;;;;;15.38;9.23;;;5.50;97.10;;;;;;4958053;28;20035;-65
2021/12/21 08:42:36;;;;;;;13.95;8.18;;;5.60;97.10;;;;;;4961428;28;20046;-64
2021/12/21 08:45:06;;;;;;;15.45;9.32;;;5.60;97.00;;;;;;4957570;28;20076;-64
2021/12/21 08:47:32;;;;;;;15.88;9.32;;;5.60;96.70;;;;;;4971732;28;20552;-65
2021/12/21 08:49:58;;;;;;;19.30;10.15;;;5.60;96.80;;;;;;4973976;28;20058;-65
2021/12/21 08:52:23;;;;;;;18.33;10.52;;;5.80;96.80;;;;;;4974710;28;20031;-65
2021/12/21 08:54:49;;;;;;;18.98;9.75;;;5.70;96.70;;;;;;4971783;28;20027;-65
2021/12/21 08:57:14;;;;;;;15.45;8.80;;;5.80;96.60;;;;;;4971262;28;20034;-65
2021/12/21 08:59:40;;;;;;;16.55;9.02;;;5.80;96.60;;;;;;4958593;28;20082;-64
2021/12/21 09:02:05;;;;;;;14.57;8.63;;;5.90;96.60;;;;;;4964805;28;20034;-66
2021/12/21 09:04:31;;;;;;;16.92;10.30;;;5.90;96.50;;;;;;4973424;28;20046;-65
2021/12/21 09:06:56;;;;;;;14.23;8.30;;;5.90;96.40;;;;;;4974320;28;20037;-65
2021/12/21 09:09:22;;;;;;;14.68;8.27;;;6.00;96.30;;;;;;4972361;28;20023;-65
2021/12/21 09:11:49;;;;;;;12.90;7.78;;;6.10;96.20;;;;;;4974630;28;20534;-66
2021/12/21 09:14:15;;;;;;;15.90;7.93;;;6.10;96.10;;;;;;4968946;28;20023;-66
2021/12/21 09:16:41;;;;;;;14.20;8.07;;;6.20;95.80;;;;;;4972504;28;20504;-63
2021/12/21 09:19:06;;;;;;;13.52;7.55;;;6.10;95.70;;;;;;4962996;28;20031;-64
2021/12/21 09:21:32;;;;;;;16.60;9.02;;;6.00;95.70;;;;;;4970181;28;20038;-64
2021/12/21 09:23:57;;;;;;;20.05;9.68;;;6.00;95.70;;;;;;4972099;28;20035;-63
2021/12/21 09:26:23;;;;;;;15.45;9.27;;;6.00;95.90;;;;;;4962776;28;20027;-63
2021/12/21 09:28:48;;;;;;;15.52;10.07;;;6.00;95.90;;;;;;4963946;28;20478;-64
2021/12/21 09:31:14;;;;;;;19.48;9.00;;;6.00;96.00;;;;;;4966758;28;20070;-63
2021/12/21 09:33:39;;;;;;;17.30;9.43;;;6.10;96.00;;;;;;4961334;28;20030;-65
2021/12/21 09:36:05;;;;;;;15.35;9.02;;;6.10;96.00;;;;;;4976631;28;20038;-65
2021/12/21 09:38:31;;;;;;;16.10;9.57;;;6.10;95.90;;;;;;4969832;28;20113;-65
2021/12/21 09:40:56;;;;;;;14.65;8.68;;;6.10;95.80;;;;;;4966915;28;20027;-65
2021/12/21 09:43:22;;;;;;;18.55;9.20;;;6.00;95.80;;;;;;4972350;28;20375;-65
2021/12/21 09:45:49;;;;;;;14.70;9.18;;;5.90;95.70;;;;;;4965611;28;20050;-64
2021/12/21 09:48:15;;;;;;;15.95;8.75;;;6.00;95.80;;;;;;4961006;28;20042;-65
2021/12/21 09:50:42;;;;;;;13.63;7.97;;;6.00;95.80;;;;;;4967113;28;20026;-64
2021/12/21 09:53:07;;;;;;;16.77;8.32;;;6.10;95.80;;;;;;4969288;28;20031;-64
2021/12/21 09:55:33;;;;;;;15.15;8.82;;;6.10;95.80;;;;;;4964870;28;20545;-64
2021/12/21 09:57:59;;;;;;;15.75;8.02;;;6.20;95.70;;;;;;4953234;28;20035;-64
2021/12/21 10:00:29;;;;;;;19.30;8.98;;;6.20;95.60;;;;;;4964640;28;20422;-64
2021/12/21 10:03:04;;;;;;;12.85;8.30;;;6.30;95.60;;;;;;4971233;28;20043;-65
2021/12/21 10:05:31;;;;;;;;;;;6.30;95.50;;;;;;4973798;28;20062;-65
2021/12/21 10:08:03;;;;;;;15.73;8.35;;;6.30;95.70;;;;;;4975722;28;19917;-64
2021/12/21 10:10:35;;;;;;;17.25;8.80;;;6.20;95.60;;;;;;4974385;28;20037;-64
2021/12/21 10:13:19;;;;;;;14.88;9.73;;;6.30;95.60;;;;;;4973122;28;20105;-64
2021/12/21 10:15:53;;;;;;;17.38;9.30;;;6.40;95.50;;;;;;4965566;28;20031;-64
2021/12/21 10:18:31;;;;;;;13.75;7.95;;;6.40;95.30;;;;;;4972158;28;20034;-64
2021/12/21 10:20:59;;;;;;;16.15;9.27;;;6.40;95.20;;;;;;4972220;28;20039;-64
2021/12/21 10:23:24;;;;;;;14.73;8.80;;;6.30;95.20;;;;;;4971900;28;20121;-64
2021/12/21 10:25:56;;;;;;;17.60;8.70;;;6.30;95.20;;;;;;4968896;28;20172;-64
2021/12/21 10:28:31;;;;;;;17.98;9.10;;;6.40;95.20;;;;;;4961066;28;20536;-65
2021/12/21 10:30:59;;;;;;;13.98;9.02;;;6.40;95.10;;;;;;4973224;28;20019;-64
2021/12/21 10:33:27;;;;;;;14.50;8.43;;;6.40;94.90;;;;;;4969084;28;20093;-64
2021/12/21 10:35:58;;;;;;;16.45;9.30;;;6.40;94.90;;;;;;4967887;28;20110;-64
2021/12/21 10:38:31;;;;;;;14.82;9.50;;;6.40;94.90;;;;;;4965797;28;20035;-64
2021/12/21 10:41:05;;;;;;;14.63;8.32;;;6.40;94.80;;;;;;4971893;28;20533;-64
2021/12/21 10:43:31;;;;;;;17.23;9.33;;;6.40;94.70;;;;;;4970910;28;20035;-64
2021/12/21 10:45:56;;;;;;;17.85;9.60;;;6.40;94.80;;;;;;4961214;28;20435;-64
2021/12/21 10:48:23;;;;;;;17.13;8.98;;;6.40;94.70;;;;;;4966391;28;20038;-64
2021/12/21 10:50:49;;;;;;;18.83;9.70;;;6.40;94.80;;;;;;4957415;28;20073;-64
2021/12/21 10:53:23;;;;;;;18.90;10.10;;;6.40;94.80;;;;;;4970673;28;20031;-63
2021/12/21 10:56:07;;;;;;;17.40;9.32;;;6.50;94.70;;;;;;4971323;28;20150;-63
2021/12/21 10:58:37;;;;;;;16.20;9.57;;;6.50;94.60;;;;;;4971134;28;20411;-63
2021/12/21 11:01:05;;;;;;;17.88;9.27;;;6.50;94.60;;;;;;4955042;28;20147;-62
2021/12/21 11:03:49;;;;;;;15.23;8.93;;;6.50;94.50;;;;;;4965660;28;20042;-64
2021/12/21 11:06:20;;;;;;;18.67;9.90;;;6.50;94.40;;;;;;4954347;28;20537;-62
2021/12/21 11:08:48;;;;;;;15.70;9.52;;;6.50;94.40;;;;;;4967325;28;20089;-63
2021/12/21 11:11:42;;;;;;;17.60;10.30;;;6.40;94.30;;;;;;4967107;28;20034;-64
2021/12/21 11:14:14;;;;;;;18.17;10.55;;;6.40;94.30;;;;;;4969202;28;20022;-64
2021/12/21 11:16:42;;;;;;;17.80;9.10;;;6.30;94.30;;;;;;4975545;28;20041;-64
2021/12/21 11:19:10;;;;;;;16.98;9.40;;;6.30;94.30;;;;;;4973234;28;20031;-63
2021/12/21 11:21:36;;;;;;;16.98;8.48;;;6.30;94.30;;;;;;4974734;28;20034;-63
2021/12/21 11:24:06;;;;;;;15.15;8.75;;;6.40;94.30;;;;;;4974778;28;20173;-63
2021/12/21 11:26:32;;;;;;;15.20;9.85;;;6.30;94.30;;;;;;4973640;28;20034;-63
2021/12/21 11:29:03;;;;;;;16.38;8.45;;;6.30;94.40;;;;;;4973631;28;20042;-65
2021/12/21 11:31:30;;;;;;;16.90;10.20;;;6.40;94.40;;;;;;4975146;28;20385;-63
2021/12/21 11:33:58;;;;;;;20.55;9.57;;;6.40;94.40;;;;;;4974114;28;20042;-62
2021/12/21 11:39:09;;;;;;;15.65;9.13;;;6.40;94.30;;;;;;4962237;28;20092;-64
2021/12/21 11:41:36;;;;;;;17.85;9.20;;;6.30;94.20;;;;;;4975761;28;20478;-63
2021/12/21 11:44:50;;;;;;;15.60;8.98;;;6.20;94.20;;;;;;4974241;28;20050;-63
2021/12/21 11:47:21;;;;;;;14.43;8.05;;;6.30;94.30;;;;;;4975016;28;20031;-63
2021/12/21 11:49:50;;;;;;;13.93;8.48;;;6.20;94.20;;;;;;4973072;28;20551;-63
2021/12/21 11:52:25;;;;;;;17.33;8.80;;;6.20;94.20;;;;;;4981360;28;20031;-63
2021/12/21 11:54:54;;;;;;;13.20;8.18;;;6.20;94.20;;;;;;4965551;28;20598;-63
2021/12/21 11:57:33;;;;;;;17.60;8.05;;;6.20;94.40;;;;;;4969657;28;20031;-63
2021/12/21 12:00:20;;;;;;;19.17;9.80;;;6.30;94.40;;;;;;4965029;28;20444;-63
2021/12/21 12:02:47;;;;;;;15.98;8.23;;;6.30;94.40;;;;;;4967063;28;20090;-64
2021/12/21 12:05:22;;;;;;;15.88;8.80;;;6.40;94.30;;;;;;4969412;28;20389;-64
2021/12/21 12:08:09;;;;;;;19.45;9.80;;;6.40;94.20;;;;;;4971834;28;20019;-63
2021/12/21 12:10:38;;;;;;;14.82;9.00;;;6.50;94.20;;;;;;4963752;28;20313;-64
2021/12/21 12:13:33;;;;;;;15.40;9.13;;;6.50;94.00;;;;;;4964612;28;20047;-63
2021/12/21 12:16:04;;;;;;;14.52;9.35;;;6.50;94.10;;;;;;4967096;28;20398;-64
2021/12/21 12:18:35;;;;;;;17.13;10.75;;;6.50;94.00;;;;;;4973577;28;20109;-63
2021/12/21 12:21:23;;;;;;;17.80;9.63;;;6.60;93.90;;;;;;4974206;28;20629;-63
2021/12/21 12:23:55;;;;;;;15.50;9.32;;;6.60;93.90;;;;;;4957376;28;20405;-64
2021/12/21 12:26:24;;;;;;;16.30;8.90;;;6.70;93.90;;;;;;4964678;28;20534;-63
2021/12/21 12:28:50;;;;;;;18.92;10.27;;;6.70;93.90;;;;;;4969828;28;20037;-64
2021/12/21 12:31:33;;;;;;;15.20;8.85;;;6.70;93.80;;;;;;4963056;28;20581;-63
2021/12/21 12:33:59;;;;;;;15.80;8.90;;;6.70;93.80;;;;;;4970384;28;20041;-65
2021/12/21 12:36:36;;;;;;;16.15;8.98;;;6.70;93.80;;;;;;4962335;28;20026;-64
2021/12/21 12:39:03;;;;;;;14.27;8.93;;;6.70;93.60;;;;;;4961202;28;20153;-65
2021/12/21 12:41:29;;;;;;;13.88;8.48;;;6.60;93.30;;;;;;4963607;28;20667;-65
2021/12/21 12:43:54;;;;;;;14.20;8.35;;;6.60;93.20;;;;;;4968688;28;20046;-64
2021/12/21 12:46:25;;;;;;;14.98;8.88;;;6.50;93.30;;;;;;4971589;28;20053;-65
2021/12/21 12:48:51;;;;;;;13.00;8.10;;;6.50;93.40;;;;;;4969144;28;20023;-65
2021/12/21 12:51:29;;;;;;;12.77;8.13;;;6.50;93.40;;;;;;4967000;28;20062;-65
2021/12/21 12:53:55;;;;;;;16.92;9.10;;;6.60;93.40;;;;;;4972580;28;20402;-65
2021/12/21 12:56:20;;;;;;;14.80;8.70;;;6.60;93.40;;;;;;4967713;28;20027;-66
2021/12/21 12:58:58;;;;;;;13.60;8.43;;;6.60;93.30;;;;;;4973393;28;20027;-65
2021/12/21 13:01:26;;;;;;;16.02;9.55;;;6.60;93.30;;;;;;4978764;28;20046;-65
2021/12/21 13:03:54;;;;;;;14.48;9.10;;;6.70;93.30;;;;;;4966911;28;20077;-65
2021/12/21 13:06:23;;;;;;;12.77;8.38;;;6.70;93.20;;;;;;4965501;28;20038;-65
2021/12/21 13:08:49;;;;;;;15.30;8.88;;;6.70;93.10;;;;;;4965282;28;20031;-65
2021/12/21 13:11:26;;;;;;;16.63;9.00;;;6.70;93.20;;;;;;4972060;28;20027;-65
2021/12/21 13:13:53;;;;;;;13.30;7.85;;;6.70;93.20;;;;;;4968966;28;20473;-65
2021/12/21 13:16:22;;;;;;;12.50;8.13;;;6.70;93.10;;;;;;4970673;28;20042;-66
2021/12/21 13:18:51;;;;;;;14.43;8.88;;;6.60;93.20;;;;;;4964133;28;20060;-66
2021/12/21 13:21:19;;;;;;;13.02;8.88;;;6.60;93.20;;;;;;4970403;28;20033;-64
2021/12/21 13:23:44;;;;;;;16.27;9.00;;;6.60;93.20;;;;;;4969458;28;20047;-64
2021/12/21 13:26:10;;;;;;;16.27;9.45;;;6.60;93.20;;;;;;4964807;28;20046;-65
2021/12/21 13:28:53;;;;;;;12.82;8.43;;;6.60;93.20;;;;;;4965677;28;20027;-65
2021/12/21 13:31:23;;;;;;;15.45;8.07;;;6.60;93.20;;;;;;4965807;28;20034;-65
2021/12/21 13:33:52;;;;;;;13.57;8.50;;;6.60;93.20;;;;;;4965342;28;20085;-65
2021/12/21 13:36:18;;;;;;;14.50;7.75;;;6.50;93.10;;;;;;4968664;28;20051;-65
2021/12/21 13:38:43;;;;;;;14.95;7.82;;;6.50;93.00;;;;;;4965836;28;20101;-65